createdAt,value
2019-05-05T00:00:15.636Z,4.66
2019-05-05T00:03:00.004Z,4.64
2019-05-05T00:05:30.952Z,4.49
2019-05-05T00:07:58.746Z,4.67
2019-05-05T00:10:34.816Z,4.50
2019-05-05T00:13:14.926Z,4.56
2019-05-05T00:16:01.051Z,4.55
2019-05-05T00:18:30.383Z,4.51
2019-05-05T00:20:58.151Z,4.40
2019-05-05T00:23:25.995Z,4.43
2019-05-05T00:25:55.273Z,4.55
2019-05-05T00:28:24.842Z,4.63
2019-05-05T00:30:52.867Z,4.56
2019-05-05T00:33:20.642Z,4.42
2019-05-05T00:35:48.457Z,4.36
2019-05-05T00:38:16.237Z,4.36
2019-05-05T00:40:44.381Z,4.52
2019-05-05T00:43:14.591Z,4.50
2019-05-05T00:45:45.087Z,4.35
2019-05-05T00:48:21.748Z,4.16
2019-05-05T00:50:51.801Z,4.11
2019-05-05T00:53:19.309Z,4.29
2019-05-05T00:55:47.149Z,4.14
2019-05-05T00:58:14.946Z,4.11
2019-05-05T01:00:54.864Z,4.25
2019-05-05T01:03:24.476Z,4.29
2019-05-05T01:06:10.322Z,4.30
2019-05-05T01:08:38.114Z,4.10
2019-05-05T01:11:05.903Z,4.10
2019-05-05T01:13:35.184Z,4.00
2019-05-05T01:16:04.824Z,3.92
2019-05-05T01:18:34.973Z,3.87
2019-05-05T01:21:04.555Z,3.96
2019-05-05T01:23:32.440Z,3.96
2019-05-05T01:26:00.279Z,3.86
2019-05-05T01:28:28.060Z,3.84
2019-05-05T01:30:59.846Z,3.70
2019-05-05T01:33:56.424Z,3.80
2019-05-05T01:36:24.320Z,3.82
2019-05-05T01:39:09.292Z,3.69
2019-05-05T01:41:40.748Z,3.69
2019-05-05T01:44:08.559Z,3.77
2019-05-05T01:46:36.340Z,3.78
2019-05-05T01:49:05.337Z,3.71
2019-05-05T01:51:35.357Z,3.65
2019-05-05T01:54:05.030Z,3.53
2019-05-05T01:56:35.199Z,3.71
2019-05-05T01:59:05.125Z,3.72
2019-05-05T02:01:35.069Z,3.94
2019-05-05T02:04:02.971Z,3.90
2019-05-05T02:06:30.805Z,3.92
2019-05-05T02:08:58.599Z,3.95
2019-05-05T02:11:26.394Z,3.94
2019-05-05T02:13:54.675Z,4.03
2019-05-05T02:16:22.617Z,4.06
2019-05-05T02:18:50.439Z,3.93
2019-05-05T02:21:18.219Z,3.93
2019-05-05T02:23:46.019Z,3.97
2019-05-05T02:26:15.324Z,4.03
2019-05-05T02:28:58.922Z,3.97
2019-05-05T02:31:36.048Z,4.02
2019-05-05T02:34:05.472Z,3.91
2019-05-05T02:36:35.445Z,3.79
2019-05-05T02:39:05.458Z,3.69
2019-05-05T02:41:34.832Z,3.79
2019-05-05T02:44:05.069Z,3.74
2019-05-05T02:46:44.560Z,3.67
2019-05-05T02:49:14.899Z,3.47
2019-05-05T02:51:44.747Z,3.55
2019-05-05T02:54:13.713Z,3.58
2019-05-05T02:56:47.312Z,3.50
2019-05-05T02:59:39.402Z,3.57
2019-05-05T03:02:19.682Z,3.49
2019-05-05T03:04:47.721Z,3.27
2019-05-05T03:07:17.900Z,3.19
2019-05-05T03:09:48.740Z,3.29
2019-05-05T03:12:19.732Z,3.19
2019-05-05T03:14:53.683Z,3.31
2019-05-05T03:17:23.450Z,3.21
2019-05-05T03:19:53.566Z,3.13
2019-05-05T03:22:23.681Z,3.06
2019-05-05T03:24:54.117Z,3.11
2019-05-05T03:27:23.722Z,3.16
2019-05-05T03:29:53.525Z,3.12
2019-05-05T03:32:24.883Z,3.12
2019-05-05T03:34:53.562Z,3.23
2019-05-05T03:37:21.556Z,3.35
2019-05-05T03:39:56.235Z,3.30
2019-05-05T03:42:39.948Z,3.24
2019-05-05T03:45:21.078Z,3.23
2019-05-05T03:47:49.772Z,3.28
2019-05-05T03:50:17.791Z,3.33
2019-05-05T03:52:45.894Z,3.34
2019-05-05T03:55:13.926Z,3.40
2019-05-05T03:57:44.507Z,3.32
2019-05-05T04:00:14.761Z,3.26
2019-05-05T04:03:07.981Z,3.37
2019-05-05T04:05:54.315Z,3.41
2019-05-05T04:08:23.515Z,3.32
2019-05-05T04:10:51.681Z,3.34
2019-05-05T04:13:19.601Z,3.37
2019-05-05T04:16:07.374Z,3.39
2019-05-05T04:18:39.805Z,3.23
2019-05-05T04:21:07.598Z,3.14
2019-05-05T04:23:35.405Z,3.18
2019-05-05T04:26:03.832Z,3.13
2019-05-05T04:28:31.661Z,3.13
2019-05-05T04:30:59.445Z,3.13
2019-05-05T04:33:27.263Z,3.17
2019-05-05T04:35:55.042Z,3.29
2019-05-05T04:38:24.323Z,3.34
2019-05-05T04:40:54.185Z,3.23
2019-05-05T04:43:21.942Z,3.31
2019-05-05T04:45:49.734Z,3.23
2019-05-05T04:48:24.262Z,3.22
2019-05-05T04:51:17.596Z,3.24
2019-05-05T04:54:03.902Z,3.18
2019-05-05T04:56:34.114Z,3.15
2019-05-05T04:59:03.840Z,3.28
2019-05-05T05:01:33.087Z,3.21
2019-05-05T05:04:08.466Z,3.20
2019-05-05T05:06:43.640Z,3.28
2019-05-05T05:09:11.460Z,3.37
2019-05-05T05:11:39.277Z,3.35
2019-05-05T05:14:07.108Z,3.33
2019-05-05T05:16:35.689Z,3.40
2019-05-05T05:19:04.324Z,3.42
2019-05-05T05:21:34.126Z,3.40
2019-05-05T05:24:03.862Z,3.54
2019-05-05T05:26:33.596Z,3.72
2019-05-05T05:29:01.495Z,4.09
2019-05-05T05:31:29.284Z,4.59
2019-05-05T05:33:57.094Z,4.94
2019-05-05T05:36:24.993Z,5.39
2019-05-05T05:38:55.218Z,5.63
2019-05-05T05:41:43.564Z,5.98
2019-05-05T05:44:30.068Z,6.55
2019-05-05T05:47:17.461Z,7.44
2019-05-05T05:50:04.855Z,7.88
2019-05-05T05:52:34.367Z,8.56
2019-05-05T05:55:04.096Z,9.94
2019-05-05T05:57:32.009Z,10.97
2019-05-05T05:59:59.843Z,11.72
2019-05-05T06:02:27.641Z,11.99
2019-05-05T06:04:55.441Z,12.43
2019-05-05T06:07:24.493Z,13.47
2019-05-05T06:09:54.137Z,14.06
2019-05-05T06:12:22.103Z,14.40
2019-05-05T06:14:50.128Z,14.42
2019-05-05T06:17:18.031Z,14.22
2019-05-05T06:19:45.819Z,13.99
2019-05-05T06:22:15.223Z,12.70
2019-05-05T06:24:43.982Z,13.35
2019-05-05T06:27:14.101Z,13.63
2019-05-05T06:29:43.633Z,14.50
2019-05-05T06:32:11.394Z,15.58
2019-05-05T06:34:41.218Z,16.90
2019-05-05T06:37:09.018Z,17.54
2019-05-05T06:39:36.844Z,17.53
2019-05-05T06:42:23.702Z,18.56
2019-05-05T06:44:55.809Z,18.29
2019-05-05T06:47:29.654Z,18.53
2019-05-05T06:49:57.490Z,18.99
2019-05-05T06:52:25.305Z,19.54
2019-05-05T06:54:54.266Z,20.24
2019-05-05T06:57:24.027Z,21.08
2019-05-05T06:59:54.249Z,22.93
2019-05-05T07:02:23.677Z,23.82
2019-05-05T07:04:51.746Z,23.35
2019-05-05T07:07:19.551Z,23.64
2019-05-05T07:09:48.810Z,24.57
2019-05-05T07:12:16.633Z,24.31
2019-05-05T07:14:44.686Z,24.12
2019-05-05T07:17:14.091Z,26.08
2019-05-05T07:19:42.108Z,27.28
2019-05-05T07:22:09.973Z,27.70
2019-05-05T07:24:37.875Z,26.62
2019-05-05T07:27:05.802Z,26.47
2019-05-05T07:29:34.288Z,26.23
2019-05-05T07:32:03.987Z,26.48
2019-05-05T07:34:50.049Z,25.40
2019-05-05T07:37:17.859Z,23.13
2019-05-05T07:39:45.657Z,25.75
2019-05-05T07:42:13.773Z,27.45
2019-05-05T07:44:41.620Z,28.07
2019-05-05T07:47:09.487Z,28.28
2019-05-05T07:49:37.299Z,28.81
2019-05-05T07:52:05.154Z,28.14
2019-05-05T07:54:34.195Z,26.27
2019-05-05T07:57:04.060Z,24.23
2019-05-05T07:59:33.895Z,25.03
2019-05-05T08:02:03.874Z,23.42
2019-05-05T08:04:31.347Z,20.80
2019-05-05T08:06:59.157Z,22.39
2019-05-05T08:09:26.966Z,23.92
2019-05-05T08:11:54.802Z,26.87
2019-05-05T08:14:24.521Z,27.29
2019-05-05T08:17:23.664Z,29.01
2019-05-05T08:19:55.262Z,26.92
2019-05-05T08:22:23.616Z,21.78
2019-05-05T08:25:15.656Z,18.91
2019-05-05T08:27:57.528Z,21.52
2019-05-05T08:30:50.777Z,21.78
2019-05-05T08:33:18.626Z,19.18
2019-05-05T08:35:46.462Z,19.17
2019-05-05T08:38:17.241Z,19.93
2019-05-05T08:40:45.076Z,23.86
2019-05-05T08:43:13.844Z,28.39
2019-05-05T08:45:44.205Z,30.49
2019-05-05T08:48:11.653Z,30.44
2019-05-05T08:50:39.617Z,27.50
2019-05-05T08:53:08.574Z,24.71
2019-05-05T08:55:36.686Z,22.07
2019-05-05T08:58:04.736Z,20.28
2019-05-05T09:00:33.828Z,19.20
2019-05-05T09:03:03.862Z,17.94
2019-05-05T09:05:31.586Z,17.25
2019-05-05T09:07:59.507Z,16.89
2019-05-05T09:10:27.336Z,16.02
2019-05-05T09:12:55.153Z,16.51
2019-05-05T09:15:24.279Z,16.07
2019-05-05T09:17:54.409Z,16.28
2019-05-05T09:20:24.063Z,17.41
2019-05-05T09:22:53.573Z,20.54
2019-05-05T09:25:47.020Z,25.77
2019-05-05T09:28:21.102Z,29.47
2019-05-05T09:30:49.654Z,31.12
2019-05-05T09:33:18.400Z,27.08
2019-05-05T09:35:46.727Z,22.67
2019-05-05T09:38:14.850Z,20.79
2019-05-05T09:40:44.571Z,23.76
2019-05-05T09:43:14.533Z,28.05
2019-05-05T09:45:44.165Z,32.89
2019-05-05T09:48:14.006Z,36.27
2019-05-05T09:50:43.674Z,38.42
2019-05-05T09:53:11.783Z,38.72
2019-05-05T09:55:39.579Z,34.08
2019-05-05T09:58:07.387Z,26.90
2019-05-05T10:00:39.778Z,23.29
2019-05-05T10:03:07.741Z,21.00
2019-05-05T10:05:35.545Z,19.51
2019-05-05T10:08:03.668Z,18.01
2019-05-05T10:10:33.572Z,17.13
2019-05-05T10:13:01.637Z,16.49
2019-05-05T10:15:29.417Z,16.95
2019-05-05T10:17:57.267Z,22.72
2019-05-05T10:20:25.061Z,28.33
2019-05-05T10:22:54.249Z,34.20
2019-05-05T10:25:54.058Z,35.33
2019-05-05T10:28:23.882Z,30.46
2019-05-05T10:30:53.756Z,24.60
2019-05-05T10:33:21.636Z,23.01
2019-05-05T10:35:49.488Z,21.67
2019-05-05T10:38:17.286Z,20.27
2019-05-05T10:40:48.176Z,19.33
2019-05-05T10:43:15.026Z,18.11
2019-05-05T10:45:44.073Z,17.08
2019-05-05T10:48:13.772Z,16.97
2019-05-05T10:50:41.743Z,15.88
2019-05-05T10:53:09.574Z,16.08
2019-05-05T10:55:37.497Z,16.74
2019-05-05T10:58:05.338Z,15.88
2019-05-05T11:00:50.709Z,15.76
2019-05-05T11:03:18.933Z,15.75
2019-05-05T11:05:48.702Z,16.86
2019-05-05T11:08:16.720Z,18.24
2019-05-05T11:10:45.147Z,22.68
2019-05-05T11:13:13.117Z,24.35
2019-05-05T11:15:40.985Z,23.26
2019-05-05T11:18:08.797Z,22.77
2019-05-05T11:20:36.714Z,21.07
2019-05-05T11:23:04.968Z,20.67
2019-05-05T11:25:33.707Z,21.41
2019-05-05T11:28:03.611Z,21.61
2019-05-05T11:30:35.010Z,22.48
2019-05-05T11:33:21.329Z,23.15
2019-05-05T11:36:17.018Z,25.11
2019-05-05T11:38:44.850Z,25.20
2019-05-05T11:41:14.377Z,23.76
2019-05-05T11:43:42.420Z,23.66
2019-05-05T11:46:10.344Z,22.24
2019-05-05T11:48:38.159Z,25.13
2019-05-05T11:51:06.007Z,27.49
2019-05-05T11:53:34.052Z,25.24
2019-05-05T11:56:04.025Z,21.64
2019-05-05T11:58:33.921Z,19.35
2019-05-05T12:01:03.536Z,18.83
2019-05-05T12:03:31.321Z,17.64
2019-05-05T12:05:59.784Z,17.44
2019-05-05T12:08:27.611Z,16.89
2019-05-05T12:10:59.642Z,15.72
2019-05-05T12:13:27.562Z,15.62
2019-05-05T12:16:06.895Z,16.90
2019-05-05T12:18:34.880Z,17.37
2019-05-05T12:21:04.872Z,19.51
2019-05-05T12:23:33.937Z,23.33
2019-05-05T12:26:24.224Z,22.62
2019-05-05T12:28:57.250Z,22.06
2019-05-05T12:31:26.898Z,19.91
2019-05-05T12:33:55.633Z,18.61
2019-05-05T12:36:23.840Z,17.63
2019-05-05T12:38:54.602Z,16.23
2019-05-05T12:41:23.867Z,16.07
2019-05-05T12:43:54.585Z,16.13
2019-05-05T12:46:44.330Z,16.06
2019-05-05T12:49:13.870Z,17.35
2019-05-05T12:51:43.552Z,24.62
2019-05-05T12:54:11.655Z,26.91
2019-05-05T12:56:39.502Z,31.64
2019-05-05T12:59:14.191Z,27.68
2019-05-05T13:01:44.152Z,24.57
2019-05-05T13:04:14.014Z,24.41
2019-05-05T13:06:41.864Z,26.45
2019-05-05T13:09:09.675Z,30.33
2019-05-05T13:11:37.491Z,31.97
2019-05-05T13:14:05.374Z,30.11
2019-05-05T13:16:33.177Z,28.29
2019-05-05T13:19:04.392Z,30.77
2019-05-05T13:21:58.077Z,33.64
2019-05-05T13:24:43.616Z,34.70
2019-05-05T13:27:19.780Z,35.79
2019-05-05T13:29:47.800Z,35.88
2019-05-05T13:32:15.608Z,35.77
2019-05-05T13:34:43.856Z,32.78
2019-05-05T13:37:13.973Z,32.24
2019-05-05T13:39:41.565Z,31.86
2019-05-05T13:42:09.396Z,26.24
2019-05-05T13:44:54.714Z,24.61
2019-05-05T13:47:23.866Z,23.69
2019-05-05T13:49:54.282Z,22.27
2019-05-05T13:52:24.190Z,21.75
2019-05-05T13:54:51.863Z,21.42
2019-05-05T13:57:19.639Z,21.31
2019-05-05T13:59:47.517Z,20.80
2019-05-05T14:02:15.512Z,20.22
2019-05-05T14:04:43.925Z,19.96
2019-05-05T14:07:11.848Z,19.93
2019-05-05T14:09:39.704Z,18.93
2019-05-05T14:12:07.590Z,18.19
2019-05-05T14:14:35.421Z,18.34
2019-05-05T14:17:04.127Z,17.94
2019-05-05T14:19:34.079Z,17.52
2019-05-05T14:22:04.210Z,17.46
2019-05-05T14:24:44.438Z,16.81
2019-05-05T14:27:14.354Z,16.01
2019-05-05T14:29:59.593Z,16.59
2019-05-05T14:32:30.874Z,16.95
2019-05-05T14:35:14.870Z,16.61
2019-05-05T14:37:48.838Z,16.18
2019-05-05T14:40:16.876Z,16.35
2019-05-05T14:42:44.685Z,16.24
2019-05-05T14:45:15.340Z,15.79
2019-05-05T14:47:44.174Z,16.02
2019-05-05T14:50:13.257Z,16.15
2019-05-05T14:52:41.102Z,16.50
2019-05-05T14:55:09.304Z,16.27
2019-05-05T14:57:37.132Z,16.24
2019-05-05T15:00:06.228Z,16.22
2019-05-05T15:02:34.788Z,16.29
2019-05-05T15:05:20.990Z,16.40
2019-05-05T15:08:00.519Z,16.64
2019-05-05T15:10:46.913Z,16.77
2019-05-05T15:13:14.867Z,16.61
2019-05-05T15:15:42.799Z,16.17
2019-05-05T15:18:10.657Z,15.74
2019-05-05T15:20:38.479Z,15.14
2019-05-05T15:23:06.339Z,14.51
2019-05-05T15:25:34.262Z,14.64
2019-05-05T15:28:02.227Z,14.87
2019-05-05T15:30:30.075Z,14.92
2019-05-05T15:32:57.933Z,14.98
2019-05-05T15:35:25.828Z,15.33
2019-05-05T15:37:54.266Z,15.61
2019-05-05T15:40:22.298Z,15.46
2019-05-05T15:42:50.228Z,15.28
2019-05-05T15:45:18.135Z,15.00
2019-05-05T15:47:46.001Z,14.82
2019-05-05T15:50:14.473Z,14.71
2019-05-05T15:52:44.077Z,14.50
2019-05-05T15:55:14.098Z,14.08
2019-05-05T15:57:44.080Z,14.03
2019-05-05T16:00:14.102Z,14.33
2019-05-05T16:02:43.988Z,14.34
2019-05-05T16:05:13.741Z,14.36
2019-05-05T16:07:43.816Z,14.42
2019-05-05T16:10:13.769Z,14.82
2019-05-05T16:12:41.816Z,14.90
2019-05-05T16:15:28.522Z,14.75
2019-05-05T16:18:28.116Z,14.21
2019-05-05T16:21:21.430Z,13.76
2019-05-05T16:23:54.331Z,13.43
2019-05-05T16:26:24.415Z,12.91
2019-05-05T16:28:55.027Z,12.83
2019-05-05T16:31:23.504Z,12.79
2019-05-05T16:33:51.567Z,12.80
2019-05-05T16:36:19.448Z,12.68
2019-05-05T16:38:47.292Z,12.64
2019-05-05T16:41:15.462Z,12.74
2019-05-05T16:43:44.250Z,12.78
2019-05-05T16:46:16.698Z,12.75
2019-05-05T16:48:43.798Z,12.97
2019-05-05T16:51:14.185Z,12.77
2019-05-05T16:53:42.163Z,12.75
2019-05-05T16:56:14.022Z,12.73
2019-05-05T16:58:41.921Z,12.62
2019-05-05T17:01:14.380Z,12.45
2019-05-05T17:03:45.375Z,12.55
2019-05-05T17:06:14.027Z,12.28
2019-05-05T17:08:44.203Z,12.05
2019-05-05T17:11:11.787Z,12.19
2019-05-05T17:14:17.387Z,12.10
2019-05-05T17:16:57.079Z,12.13
2019-05-05T17:19:56.434Z,12.12
2019-05-05T17:22:37.731Z,12.14
2019-05-05T17:25:08.040Z,12.12
2019-05-05T17:27:47.666Z,11.83
2019-05-05T17:30:06.285Z,11.81
2019-05-05T17:32:34.465Z,11.83
2019-05-05T17:35:03.865Z,11.92
2019-05-05T17:37:33.549Z,11.76
2019-05-05T17:40:09.065Z,11.67
2019-05-05T17:43:01.627Z,11.57
2019-05-05T17:45:47.474Z,11.49
2019-05-05T17:48:20.919Z,11.55
2019-05-05T17:51:06.616Z,11.71
2019-05-05T17:54:09.188Z,11.67
2019-05-05T17:56:37.090Z,11.66
2019-05-05T17:59:05.121Z,11.70
2019-05-05T18:01:33.611Z,11.49
2019-05-05T18:04:01.568Z,11.46
2019-05-05T18:06:36.510Z,11.46
2019-05-05T18:09:11.238Z,11.28
2019-05-05T18:11:44.874Z,11.17
2019-05-05T18:14:18.322Z,11.11
2019-05-05T18:16:46.153Z,11.08
2019-05-05T18:19:14.094Z,11.14
2019-05-05T18:21:43.816Z,11.18
2019-05-05T18:24:13.656Z,11.24
2019-05-05T18:26:43.439Z,11.14
2019-05-05T18:29:11.216Z,11.12
2019-05-05T18:31:39.131Z,11.06
2019-05-05T18:34:06.928Z,10.92
2019-05-05T18:36:34.820Z,11.11
2019-05-05T18:39:04.993Z,11.16
2019-05-05T18:41:38.388Z,11.22
2019-05-05T18:44:17.497Z,11.09
2019-05-05T18:46:47.246Z,11.08
2019-05-05T18:49:17.450Z,11.00
2019-05-05T18:51:45.275Z,11.00
2019-05-05T18:54:13.117Z,10.99
2019-05-05T18:56:40.929Z,10.88
2019-05-05T18:59:08.756Z,10.89
2019-05-05T19:01:45.182Z,11.01
2019-05-05T19:04:41.767Z,11.02
2019-05-05T19:07:23.850Z,11.05
2019-05-05T19:09:54.337Z,11.05
2019-05-05T19:12:21.515Z,10.97
2019-05-05T19:14:49.775Z,10.97
2019-05-05T19:17:17.623Z,11.00
2019-05-05T19:19:49.417Z,11.04
2019-05-05T19:22:17.225Z,11.00
2019-05-05T19:24:45.092Z,10.95
2019-05-05T19:27:14.195Z,10.98
2019-05-05T19:29:45.978Z,10.98
2019-05-05T19:32:11.947Z,10.98
2019-05-05T19:34:43.966Z,10.89
2019-05-05T19:37:13.889Z,10.88
2019-05-05T19:39:41.676Z,10.80
2019-05-05T19:42:09.503Z,10.68
2019-05-05T19:44:37.340Z,10.56
2019-05-05T19:47:17.302Z,10.45
2019-05-05T19:49:51.511Z,10.29
2019-05-05T19:52:19.337Z,10.24
2019-05-05T19:54:47.643Z,10.07
2019-05-05T19:57:15.566Z,10.07
2019-05-05T19:59:44.745Z,10.00
2019-05-05T20:02:12.800Z,9.93
2019-05-05T20:04:40.644Z,9.80
2019-05-05T20:07:08.814Z,9.64
2019-05-05T20:09:36.689Z,9.57
2019-05-05T20:12:04.531Z,9.50
2019-05-05T20:14:34.274Z,9.58
2019-05-05T20:17:07.793Z,9.56
2019-05-05T20:19:43.746Z,9.59
2019-05-05T20:22:11.408Z,9.51
2019-05-05T20:24:39.266Z,9.44
2019-05-05T20:27:07.099Z,9.44
2019-05-05T20:29:37.382Z,9.42
2019-05-05T20:32:04.973Z,9.38
2019-05-05T20:34:40.951Z,9.34
2019-05-05T20:37:14.116Z,9.30
2019-05-05T20:39:43.971Z,9.25
2019-05-05T20:42:12.050Z,9.22
2019-05-05T20:44:40.684Z,9.19
2019-05-05T20:47:08.492Z,9.14
2019-05-05T20:49:36.306Z,9.12
2019-05-05T20:52:04.089Z,9.07
2019-05-05T20:54:31.911Z,8.98
2019-05-05T20:56:59.719Z,8.87
2019-05-05T20:59:30.856Z,8.93
2019-05-05T21:01:57.286Z,8.95
2019-05-05T21:04:25.147Z,8.93
2019-05-05T21:06:52.989Z,9.04
2019-05-05T21:09:20.797Z,9.10
2019-05-05T21:11:48.604Z,9.08
2019-05-05T21:14:16.463Z,9.15
2019-05-05T21:16:44.265Z,9.11
2019-05-05T21:19:14.056Z,9.05
2019-05-05T21:21:44.692Z,8.90
2019-05-05T21:24:12.583Z,8.92
2019-05-05T21:27:00.785Z,8.97
2019-05-05T21:29:39.494Z,8.97
2019-05-05T21:31:58.318Z,8.97
2019-05-05T21:34:26.319Z,9.02
2019-05-05T21:36:54.273Z,9.04
2019-05-05T21:39:22.163Z,9.09
2019-05-05T21:41:50.270Z,9.12
2019-05-05T21:44:18.106Z,9.07
2019-05-05T21:46:45.906Z,9.11
2019-05-05T21:49:13.855Z,8.97
2019-05-05T21:52:08.096Z,8.89
2019-05-05T21:54:44.069Z,8.79
2019-05-05T21:57:40.318Z,8.59
2019-05-05T22:00:28.566Z,8.56
2019-05-05T22:02:56.683Z,8.58
2019-05-05T22:05:24.577Z,8.55
2019-05-05T22:07:53.911Z,8.49
2019-05-05T22:10:21.809Z,8.38
2019-05-05T22:12:49.661Z,8.32
2019-05-05T22:15:17.510Z,8.18
2019-05-05T22:17:45.290Z,8.13
2019-05-05T22:20:20.307Z,8.02
2019-05-05T22:22:48.770Z,8.05
2019-05-05T22:25:16.615Z,8.02
2019-05-05T22:27:44.452Z,7.95
2019-05-05T22:30:14.198Z,7.83
2019-05-05T22:32:43.969Z,7.78
2019-05-05T22:35:14.074Z,7.77
2019-05-05T22:37:43.814Z,7.71
2019-05-05T22:40:19.844Z,7.66
2019-05-05T22:42:47.770Z,7.58
2019-05-05T22:45:15.712Z,7.54
2019-05-05T22:47:43.547Z,7.55
2019-05-05T22:50:13.889Z,7.64
2019-05-05T22:52:41.900Z,7.68
2019-05-05T22:55:10.309Z,7.68
2019-05-05T22:57:38.204Z,7.60
2019-05-05T23:00:23.834Z,7.65
2019-05-05T23:02:44.451Z,7.63
2019-05-05T23:05:30.149Z,7.46
2019-05-05T23:07:58.011Z,7.43
2019-05-05T23:10:25.789Z,7.37
2019-05-05T23:12:54.430Z,7.37
2019-05-05T23:15:25.311Z,7.39
2019-05-05T23:17:57.897Z,7.48
2019-05-05T23:20:55.593Z,7.32
2019-05-05T23:23:43.005Z,7.41
2019-05-05T23:26:13.919Z,7.44
2019-05-05T23:28:44.260Z,7.57
2019-05-05T23:31:11.715Z,7.58
2019-05-05T23:33:39.656Z,7.55
2019-05-05T23:36:07.444Z,7.52
2019-05-05T23:38:35.251Z,7.49
2019-05-05T23:41:03.856Z,7.64
2019-05-05T23:43:31.886Z,7.67
2019-05-05T23:45:59.672Z,7.60
2019-05-05T23:48:28.211Z,7.69
2019-05-05T23:50:56.022Z,7.73
2019-05-05T23:53:24.897Z,7.71
2019-05-05T23:55:54.646Z,7.67
2019-05-05T23:58:23.993Z,7.70
